createdAt,value
2023-03-19T00:02:51.283Z,5.30
2023-03-19T00:12:54.717Z,5.75
2023-03-19T00:22:59.287Z,5.05
2023-03-19T00:33:02.853Z,4.90
2023-03-19T00:43:07.462Z,4.63
2023-03-19T00:53:10.722Z,4.53
2023-03-19T01:03:15.447Z,4.57
2023-03-19T01:13:18.743Z,4.75
2023-03-19T01:23:23.386Z,4.23
2023-03-19T01:33:26.813Z,3.77
2023-03-19T01:43:37.498Z,3.50
2023-03-19T01:53:51.058Z,3.57
2023-03-19T02:04:09.297Z,3.35
2023-03-19T02:14:13.432Z,3.17
2023-03-19T02:24:24.264Z,3.60
2023-03-19T02:34:42.326Z,4.03
2023-03-19T02:44:46.209Z,3.60
2023-03-19T02:54:50.912Z,3.67
2023-03-19T03:04:54.948Z,3.73
2023-03-19T03:14:59.578Z,3.30
2023-03-19T03:25:02.802Z,3.50
2023-03-19T03:35:08.587Z,3.53
2023-03-19T03:45:12.774Z,2.70
2023-03-19T03:55:19.403Z,3.03
2023-03-19T04:05:22.726Z,3.03
2023-03-19T04:15:29.475Z,3.43
2023-03-19T04:25:34.345Z,3.30
2023-03-19T04:35:39.113Z,3.33
2023-03-19T04:45:42.670Z,3.20
2023-03-19T04:55:47.932Z,3.37
2023-03-19T05:05:54.574Z,3.33
2023-03-19T05:15:59.564Z,3.50
2023-03-19T05:26:03.092Z,3.47
2023-03-19T05:36:30.997Z,3.40
2023-03-19T05:46:43.537Z,3.67
2023-03-19T05:56:49.088Z,3.50
2023-03-19T06:07:18.432Z,3.40
2023-03-19T06:17:23.068Z,3.37
2023-03-19T06:27:27.075Z,3.47
2023-03-19T06:37:41.688Z,3.57
2023-03-19T06:47:45.516Z,3.40
2023-03-19T06:57:51.784Z,3.30
2023-03-19T07:07:54.968Z,3.47
2023-03-19T07:17:59.782Z,3.00
2023-03-19T07:28:03.037Z,3.15
2023-03-19T07:38:08.157Z,3.42
2023-03-19T07:48:11.603Z,3.05
2023-03-19T07:58:16.852Z,3.30
2023-03-19T08:08:20.206Z,3.80
2023-03-19T08:18:24.804Z,3.28
2023-03-19T08:28:28.146Z,2.88
2023-03-19T08:38:32.703Z,3.80
2023-03-19T08:48:35.926Z,4.05
2023-03-19T08:58:42.129Z,3.70
2023-03-19T09:08:46.115Z,3.70
2023-03-19T09:18:50.747Z,3.70
2023-03-19T09:28:54.023Z,3.63
2023-03-19T09:38:58.840Z,3.83
2023-03-19T09:49:07.306Z,3.63
2023-03-19T09:59:11.988Z,3.60
2023-03-19T10:09:38.989Z,3.30
2023-03-19T10:19:47.988Z,3.58
2023-03-19T10:29:51.557Z,3.40
2023-03-19T10:39:58.202Z,3.65
2023-03-19T10:50:01.436Z,3.53
2023-03-19T11:00:10.988Z,3.15
2023-03-19T11:10:17.238Z,3.45
2023-03-19T11:20:24.697Z,3.53
2023-03-19T11:30:32.768Z,2.97
2023-03-19T11:40:45.422Z,3.00
2023-03-19T11:50:54.582Z,3.25
2023-03-19T12:01:05.194Z,2.42
2023-03-19T12:11:22.053Z,3.00
2023-03-19T12:21:36.121Z,2.78
2023-03-19T12:32:07.501Z,2.50
2023-03-19T12:42:15.275Z,2.60
2023-03-19T12:52:25.024Z,2.95
2023-03-19T13:02:34.945Z,3.08
2023-03-19T13:12:39.897Z,2.83
2023-03-19T13:22:48.788Z,3.15
2023-03-19T13:33:02.084Z,2.60
2023-03-19T13:43:36.292Z,3.00
2023-03-19T13:53:42.496Z,2.72
2023-03-19T14:03:58.464Z,2.92
2023-03-19T14:14:05.113Z,2.78
2023-03-19T14:34:55.314Z,2.45
2023-03-19T14:45:40.773Z,2.35
2023-03-19T14:55:44.280Z,3.10
2023-03-19T15:05:50.689Z,2.70
2023-03-19T15:16:08.087Z,2.58
2023-03-19T15:26:13.329Z,2.80
2023-03-19T15:36:19.995Z,2.60
2023-03-19T15:46:26.501Z,2.80
2023-03-19T15:56:31.498Z,3.47
2023-03-19T16:06:39.218Z,3.47
2023-03-19T16:16:45.946Z,5.60
2023-03-19T16:26:50.757Z,3.47
2023-03-19T16:36:53.938Z,2.63
2023-03-19T16:46:58.524Z,2.80
2023-03-19T16:57:01.973Z,2.90
2023-03-19T17:07:06.803Z,2.78
2023-03-19T17:17:18.318Z,2.30
2023-03-19T17:27:22.920Z,1.90
2023-03-19T17:37:28.080Z,1.23
2023-03-19T17:47:34.350Z,1.20
2023-03-19T17:57:37.563Z,1.30
2023-03-19T18:07:42.056Z,1.40
2023-03-19T18:17:49.567Z,2.37
2023-03-19T18:27:54.846Z,1.97
2023-03-19T18:37:58.380Z,1.70
2023-03-19T18:48:02.945Z,2.60
2023-03-19T18:58:07.205Z,2.20
2023-03-19T19:08:16.311Z,3.03
2023-03-19T19:18:21.419Z,4.03
2023-03-19T19:28:30.499Z,3.70
2023-03-19T19:38:33.695Z,4.43
2023-03-19T19:48:38.962Z,3.90
2023-03-19T19:58:42.434Z,3.70
2023-03-19T20:08:49.205Z,3.93
2023-03-19T20:18:54.694Z,5.67
2023-03-19T20:28:59.291Z,3.23
2023-03-19T20:39:02.453Z,2.97
2023-03-19T20:49:07.802Z,3.30
2023-03-19T20:59:12.493Z,2.40
2023-03-19T21:09:17.721Z,1.60
2023-03-19T21:19:20.954Z,1.20
2023-03-19T21:29:32.433Z,0.80
2023-03-19T21:39:35.853Z,0.60
2023-03-19T21:49:40.444Z,0.50
2023-03-19T21:59:46.929Z,0.53
2023-03-19T22:09:51.542Z,0.40
2023-03-19T22:19:54.773Z,0.67
2023-03-19T22:30:02.056Z,0.60
2023-03-19T22:40:05.863Z,0.50
2023-03-19T22:50:18.452Z,0.57
2023-03-19T23:00:23.797Z,0.80
2023-03-19T23:10:30.222Z,0.60
2023-03-19T23:20:33.807Z,0.47
2023-03-19T23:30:41.406Z,0.40
2023-03-19T23:40:46.202Z,0.50
2023-03-19T23:50:50.868Z,0.40
